Time;durP1;ratioP1;P1;durP2;ratioP2;P2;SDS_P1;SDS_P2;PMS_P1;PMS_P2;Temp;Humidity;BMP_temperature;BMP_pressure;BME280_temperature;BME280_humidity;BME280_pressure;Samples;Min_cycle;Max_cycle;Signal;HPM_P1;HPM_P2
2021/11/12 00:02:50;;;;;;;23.23;18.87;;;11.90;99.90;;;;;;5012084;28;20808;-67
2021/11/12 00:15:48;;;;;;;21.13;18.37;;;11.90;99.90;;;;;;5011733;28;20432;-67
2021/11/12 00:18:14;;;;;;;22.30;18.10;;;12.00;99.90;;;;;;5012306;28;20614;-67
2021/11/12 00:20:40;;;;;;;24.50;18.40;;;11.90;99.90;;;;;;5011381;28;20422;-67
2021/11/12 00:23:06;;;;;;;26.97;18.73;;;11.90;99.90;;;;;;5012502;28;20778;-67
2021/11/12 00:25:31;;;;;;;24.70;20.10;;;11.90;99.90;;;;;;5011801;28;20194;-67
2021/11/12 00:27:57;;;;;;;30.03;20.00;;;11.90;99.90;;;;;;5015135;28;20175;-67
2021/11/12 00:31:18;;;;;;;22.83;18.40;;;11.90;99.90;;;;;;5015796;28;20208;-68
2021/11/12 00:38:30;;;;;;;24.17;18.10;;;11.90;99.90;;;;;;5014831;28;20906;-68
2021/11/12 00:41:00;;;;;;;24.30;17.73;;;11.90;99.90;;;;;;5015866;28;20426;-67
2021/11/12 00:46:35;;;;;;;26.20;19.00;;;11.90;99.90;;;;;;4983239;28;20465;-67
2021/11/12 00:49:06;;;;;;;20.87;18.63;;;11.90;99.90;;;;;;5011299;28;20524;-67
2021/11/12 00:51:39;;;;;;;23.57;19.37;;;11.90;99.90;;;;;;4997756;28;20410;-67
2021/11/12 00:54:06;;;;;;;25.30;19.20;;;11.90;99.90;;;;;;5015842;28;20841;-67
2021/11/12 00:56:33;;;;;;;25.60;19.00;;;11.80;99.90;;;;;;5015333;28;20507;-67
2021/11/12 00:59:01;;;;;;;22.70;19.70;;;11.80;99.90;;;;;;5014904;28;20422;-67
2021/11/12 01:01:30;;;;;;;22.10;18.47;;;11.80;99.90;;;;;;5014954;28;20421;-67
2021/11/12 01:03:56;;;;;;;25.97;19.80;;;11.90;99.90;;;;;;5015543;28;20416;-67
2021/11/12 01:06:23;;;;;;;25.23;19.80;;;11.90;99.90;;;;;;5014833;28;20960;-67
2021/11/12 01:08:49;;;;;;;23.13;18.30;;;11.90;99.90;;;;;;5014823;28;20476;-67
2021/11/12 01:11:17;;;;;;;22.93;19.50;;;11.90;99.90;;;;;;5015477;28;20415;-67
2021/11/12 01:13:47;;;;;;;22.93;18.17;;;11.90;99.90;;;;;;5014498;28;20489;-67
2021/11/12 01:16:13;;;;;;;24.77;17.70;;;11.80;99.90;;;;;;5015290;28;20414;-67
2021/11/12 01:18:39;;;;;;;13.63;12.23;;;11.80;99.90;;;;;;5014345;28;20420;-67
2021/11/12 01:21:09;;;;;;;11.13;8.33;;;11.80;99.90;;;;;;5015218;28;20420;-67
2021/11/12 01:23:37;;;;;;;9.00;8.10;;;11.70;99.90;;;;;;5014622;28;20421;-67
2021/11/12 01:26:03;;;;;;;7.07;6.43;;;11.70;99.90;;;;;;5015120;28;20442;-67
2021/11/12 01:28:29;;;;;;;6.50;6.00;;;11.70;99.90;;;;;;5014126;28;20527;-67
2021/11/12 01:30:56;;;;;;;5.77;5.30;;;11.80;99.90;;;;;;5015078;28;20773;-67
2021/11/12 01:33:22;;;;;;;4.07;3.77;;;11.80;99.90;;;;;;4997519;28;20491;-67
2021/11/12 01:35:48;;;;;;;5.10;4.70;;;11.70;99.90;;;;;;5014347;28;20422;-67
2021/11/12 01:38:15;;;;;;;5.27;4.87;;;11.70;99.90;;;;;;5014514;28;20417;-67
2021/11/12 01:40:40;;;;;;;5.20;4.80;;;11.70;99.90;;;;;;5014150;28;20206;-67
2021/11/12 01:45:53;;;;;;;5.50;5.10;;;11.70;99.90;;;;;;5013564;28;20254;-67
2021/11/12 01:53:38;;;;;;;7.03;6.40;;;11.60;99.90;;;;;;5013852;28;20931;-67
2021/11/12 01:56:23;;;;;;;5.60;5.20;;;11.60;99.90;;;;;;5014519;28;20416;-67
2021/11/12 01:59:05;;;;;;;5.93;5.43;;;11.60;99.90;;;;;;5013645;28;20443;-67
2021/11/12 02:01:54;;;;;;;6.67;6.03;;;11.50;99.90;;;;;;5013741;28;20437;-67
2021/11/12 02:04:23;;;;;;;7.60;5.80;;;11.50;99.90;;;;;;5014555;28;20405;-67
2021/11/12 02:06:49;;;;;;;6.57;5.93;;;11.20;99.90;;;;;;5013590;28;20431;-67
2021/11/12 02:09:20;;;;;;;6.47;5.97;;;11.20;99.90;;;;;;5014269;28;20972;-67
2021/11/12 02:11:57;;;;;;;6.93;6.33;;;11.20;99.90;;;;;;5013250;28;20436;-67
2021/11/12 02:14:24;;;;;;;6.63;6.07;;;11.20;99.90;;;;;;5003267;28;20426;-67
2021/11/12 02:17:06;;;;;;;7.60;6.90;;;11.20;99.90;;;;;;5013356;28;20673;-67
2021/11/12 02:19:35;;;;;;;7.23;6.63;;;11.10;99.90;;;;;;5011134;28;20450;-67
2021/11/12 02:22:11;;;;;;;6.80;6.20;;;11.10;99.90;;;;;;4996603;28;20427;-67
2021/11/12 02:24:41;;;;;;;7.03;6.43;;;11.10;99.90;;;;;;5013460;28;20827;-67
2021/11/12 02:27:11;;;;;;;7.30;6.70;;;11.10;99.90;;;;;;5013729;28;20394;-67
2021/11/12 02:29:41;;;;;;;7.93;7.20;;;11.10;99.90;;;;;;5013000;28;20956;-67
2021/11/12 02:32:20;;;;;;;7.27;6.60;;;11.00;99.90;;;;;;5013802;28;20479;-67
2021/11/12 02:34:49;;;;;;;7.43;6.83;;;10.80;99.90;;;;;;5013347;28;20405;-67
2021/11/12 02:37:16;;;;;;;7.20;6.60;;;10.90;99.90;;;;;;4996379;28;20908;-67
2021/11/12 02:39:42;;;;;;;8.07;7.37;;;11.00;99.90;;;;;;5013015;28;20422;-67
2021/11/12 02:42:08;;;;;;;7.40;6.80;;;10.80;99.90;;;;;;4995782;28;20522;-67
2021/11/12 02:44:35;;;;;;;8.23;7.63;;;10.80;99.90;;;;;;4995453;28;20277;-67
2021/11/12 02:47:02;;;;;;;7.60;7.00;;;10.80;99.90;;;;;;5013232;28;20856;-67
2021/11/12 02:49:28;;;;;;;7.23;6.63;;;10.80;99.90;;;;;;5012925;28;20952;-67
2021/11/12 02:51:55;;;;;;;7.60;7.00;;;10.80;99.90;;;;;;5012909;28;20427;-67
2021/11/12 02:54:20;;;;;;;7.00;6.50;;;10.80;99.90;;;;;;5013504;28;20632;-67
2021/11/12 02:56:46;;;;;;;7.30;6.73;;;10.70;99.90;;;;;;5012908;28;20519;-67
2021/11/12 02:59:13;;;;;;;7.40;6.80;;;10.60;99.90;;;;;;5013341;28;20270;-67
2021/11/12 03:01:45;;;;;;;7.60;6.90;;;10.60;99.90;;;;;;5012575;28;20429;-67
2021/11/12 03:04:11;;;;;;;6.97;6.37;;;10.60;99.90;;;;;;5013319;28;20420;-67
2021/11/12 03:06:38;;;;;;;6.33;5.83;;;10.60;99.90;;;;;;5012810;28;20461;-67
2021/11/12 03:09:06;;;;;;;7.20;6.53;;;10.60;99.90;;;;;;5012550;28;20496;-67
2021/11/12 03:11:37;;;;;;;7.27;6.57;;;10.50;99.90;;;;;;5013600;28;20509;-67
2021/11/12 03:14:05;;;;;;;7.10;6.50;;;10.50;99.90;;;;;;5013073;28;20398;-67
2021/11/12 03:16:33;;;;;;;7.70;7.00;;;10.50;99.90;;;;;;4995646;28;20423;-67
2021/11/12 03:19:00;;;;;;;7.90;7.20;;;10.40;99.90;;;;;;5013128;28;20765;-67
2021/11/12 03:21:26;;;;;;;7.43;6.80;;;10.50;99.90;;;;;;5013222;28;20425;-67
2021/11/12 03:29:24;;;;;;;7.60;6.60;;;10.40;99.90;;;;;;5012267;28;20506;-67
2021/11/12 03:59:45;;;;;;;8.00;7.40;;;10.00;99.90;;;;;;5012713;28;20734;-67
2021/11/12 04:39:54;;;;;;;8.27;7.57;;;9.30;99.30;;;;;;4996600;28;20519;-66
2021/11/12 05:45:08;;;;;;;10.60;9.30;;;8.50;99.50;;;;;;5013972;28;20426;-68
2021/11/12 05:55:16;;;;;;;10.63;9.00;;;8.40;99.90;;;;;;5006191;28;20436;-67
2021/11/12 05:57:42;;;;;;;11.40;9.07;;;8.50;99.90;;;;;;5014278;28;20438;-67
2021/11/12 06:00:14;;;;;;;11.97;10.00;;;8.50;99.90;;;;;;5014628;28;20210;-67
2021/11/12 06:02:41;;;;;;;12.23;10.93;;;8.50;99.90;;;;;;5014426;28;20516;-67
2021/11/12 06:05:07;;;;;;;13.80;9.83;;;8.60;99.90;;;;;;5013785;28;20429;-67
2021/11/12 06:07:34;;;;;;;10.93;9.83;;;8.60;99.90;;;;;;5014338;28;20492;-67
2021/11/12 06:10:00;;;;;;;16.73;13.50;;;8.60;99.90;;;;;;5013384;28;20544;-67
2021/11/12 06:12:28;;;;;;;10.97;9.63;;;8.50;99.90;;;;;;5014050;28;20529;-67
2021/11/12 06:14:54;;;;;;;13.90;9.30;;;8.50;99.90;;;;;;5013250;28;20186;-67
2021/11/12 06:17:20;;;;;;;15.70;11.97;;;8.50;99.90;;;;;;4996511;28;20496;-67
2021/11/12 06:19:46;;;;;;;11.60;9.90;;;8.50;99.90;;;;;;5013535;28;20418;-68
2021/11/12 06:22:12;;;;;;;13.20;10.10;;;8.50;99.90;;;;;;5013509;28;20425;-67
2021/11/12 06:24:38;;;;;;;9.93;8.93;;;8.50;99.90;;;;;;5012496;28;20430;-67
2021/11/12 06:27:05;;;;;;;11.03;9.43;;;8.50;99.90;;;;;;5004872;28;20501;-67
2021/11/12 06:29:31;;;;;;;11.20;9.43;;;8.50;99.90;;;;;;4994301;28;20246;-67
2021/11/12 06:31:57;;;;;;;12.40;11.07;;;8.40;99.90;;;;;;5011047;28;20813;-69
2021/11/12 06:34:23;;;;;;;9.13;8.23;;;8.70;99.90;;;;;;5013641;28;20185;-69
2021/11/12 06:36:50;;;;;;;12.17;10.97;;;9.20;99.90;;;;;;5008523;28;20206;-69
2021/11/12 06:39:16;;;;;;;8.47;7.47;;;9.90;99.90;;;;;;5008381;28;20727;-69
2021/11/12 06:50:03;;;;;;;12.10;11.00;;;11.90;95.10;;;;;;5069927;28;20975;-68
2021/11/12 06:52:31;;;;;;;9.50;8.70;;;12.30;94.10;;;;;;5069729;28;20769;-68
2021/11/12 06:55:01;;;;;;;9.00;8.10;;;12.60;92.90;;;;;;5067831;28;20421;-68
2021/11/12 06:57:27;;;;;;;11.40;10.40;;;12.90;92.00;;;;;;5069292;28;20414;-68
2021/11/12 06:59:53;;;;;;;9.87;8.93;;;13.10;91.30;;;;;;5068047;28;20428;-68
2021/11/12 07:02:22;;;;;;;10.37;9.33;;;13.30;91.00;;;;;;5069402;28;20421;-67
2021/11/12 07:04:48;;;;;;;11.57;10.57;;;13.40;90.80;;;;;;5068941;28;20459;-68
2021/11/12 07:07:15;;;;;;;12.33;10.23;;;13.70;90.90;;;;;;5069612;28;20441;-67
2021/11/12 07:09:42;;;;;;;11.50;10.13;;;13.80;90.90;;;;;;5069552;28;20902;-67
2021/11/12 07:12:10;;;;;;;11.67;9.37;;;13.90;90.30;;;;;;5068875;28;20438;-68
2021/11/12 07:14:35;;;;;;;10.50;9.50;;;13.90;90.00;;;;;;5068791;28;20418;-68
2021/11/12 07:17:02;;;;;;;11.73;10.30;;;13.90;89.20;;;;;;5068648;28;20410;-68
2021/11/12 07:19:28;;;;;;;13.00;11.70;;;13.50;88.40;;;;;;5069341;28;20181;-68
2021/11/12 07:21:57;;;;;;;11.70;10.50;;;13.10;88.90;;;;;;5068231;28;20430;-68
2021/11/12 07:24:24;;;;;;;10.90;9.87;;;12.80;90.00;;;;;;5068648;28;20194;-68
2021/11/12 07:26:50;;;;;;;9.57;8.40;;;12.40;90.40;;;;;;5068534;28;20848;-68
2021/11/12 07:29:18;;;;;;;12.60;11.40;;;12.00;90.60;;;;;;5068745;28;20444;-68
2021/11/12 07:31:44;;;;;;;11.27;10.17;;;11.70;91.00;;;;;;5067957;28;20427;-68
2021/11/12 07:34:10;;;;;;;13.13;11.93;;;11.40;91.80;;;;;;5068127;28;20443;-68
2021/11/12 07:36:39;;;;;;;12.00;10.90;;;11.10;92.60;;;;;;5075715;28;20434;-68
2021/11/12 07:39:36;;;;;;;11.37;9.90;;;10.90;93.40;;;;;;5068072;28;20419;-69
2021/11/12 07:47:10;;;;;;;11.17;10.00;;;10.30;95.90;;;;;;5068081;28;20425;-70
2021/11/12 07:49:37;;;;;;;11.60;10.40;;;10.20;96.70;;;;;;5068585;28;20415;-70
2021/11/12 07:52:04;;;;;;;13.87;12.27;;;10.10;97.40;;;;;;5067727;28;20429;-69
2021/11/12 07:54:30;;;;;;;12.50;11.20;;;10.00;98.10;;;;;;5068611;28;20818;-69
2021/11/12 07:56:56;;;;;;;13.03;11.83;;;9.80;99.80;;;;;;5061744;28;20405;-70
2021/11/12 07:59:22;;;;;;;11.77;10.53;;;9.60;99.90;;;;;;5055408;28;20587;-69
2021/11/12 08:01:47;;;;;;;12.07;10.77;;;9.60;99.90;;;;;;5055300;28;20429;-70
2021/11/12 08:04:13;;;;;;;11.17;9.93;;;9.70;99.90;;;;;;5054154;28;20225;-70
2021/11/12 08:06:39;;;;;;;12.37;11.20;;;9.70;99.90;;;;;;5054854;28;20534;-70
2021/11/12 08:09:09;;;;;;;11.97;10.67;;;9.80;99.90;;;;;;5054426;28;20187;-70
2021/11/12 08:11:44;;;;;;;11.57;9.60;;;9.80;99.90;;;;;;5055025;28;20428;-70
2021/11/12 08:14:13;;;;;;;11.63;10.27;;;9.90;99.90;;;;;;5054632;28;20698;-70
2021/11/12 08:19:13;;;;;;;13.27;12.00;;;10.00;99.90;;;;;;5053696;28;20427;-70
2021/11/12 08:26:39;;;;;;;12.30;10.70;;;10.20;99.90;;;;;;5050316;28;20712;-69
2021/11/12 08:32:08;;;;;;;13.60;12.20;;;10.20;99.90;;;;;;5054422;28;20879;-70
2021/11/12 08:42:48;;;;;;;11.80;10.60;;;11.20;99.90;;;;;;5054619;28;20471;-70
2021/11/12 08:45:30;;;;;;;12.53;11.23;;;12.10;98.00;;;;;;5053652;28;20491;-70
2021/11/12 08:48:10;;;;;;;12.33;11.13;;;13.00;95.60;;;;;;5053915;28;20404;-70
2021/11/12 08:50:36;;;;;;;12.40;11.30;;;14.20;94.20;;;;;;5054520;28;20427;-69
2021/11/12 08:53:06;;;;;;;12.30;11.20;;;15.40;92.00;;;;;;5053753;28;20416;-70
2021/11/12 08:55:35;;;;;;;10.77;9.83;;;16.40;88.60;;;;;;5054256;28;20408;-70
2021/11/12 08:58:01;;;;;;;13.83;12.43;;;17.00;84.90;;;;;;5053719;28;20412;-70
2021/11/12 09:00:28;;;;;;;13.00;11.90;;;17.40;81.80;;;;;;5054459;28;20462;-70
2021/11/12 09:02:54;;;;;;;12.50;11.33;;;17.90;79.60;;;;;;5053475;28;20516;-70
2021/11/12 09:05:21;;;;;;;13.53;12.33;;;18.30;77.50;;;;;;5053763;28;20547;-69
2021/11/12 09:07:48;;;;;;;14.67;13.23;;;18.50;75.10;;;;;;5053726;28;20454;-70
2021/11/12 09:10:16;;;;;;;13.87;12.77;;;18.70;74.00;;;;;;5052642;28;20759;-70
2021/11/12 09:12:45;;;;;;;12.80;11.60;;;18.70;73.00;;;;;;5053548;28;20731;-69
2021/11/12 09:15:30;;;;;;;15.10;13.80;;;18.70;73.20;;;;;;5051325;28;20809;-70
2021/11/12 09:17:57;;;;;;;13.23;12.03;;;18.60;72.10;;;;;;5051727;28;20446;-70
2021/11/12 09:20:24;;;;;;;15.27;13.73;;;18.50;72.90;;;;;;5053788;28;20404;-69
2021/11/12 09:22:52;;;;;;;14.10;12.70;;;18.50;73.60;;;;;;5053777;28;20412;-69
2021/11/12 09:25:18;;;;;;;15.73;14.37;;;18.30;73.80;;;;;;5052729;28;20451;-69
2021/11/12 09:27:44;;;;;;;14.60;13.20;;;18.10;73.90;;;;;;5053125;28;20446;-69
2021/11/12 09:30:14;;;;;;;14.27;12.90;;;17.90;74.80;;;;;;5052717;28;20872;-69
2021/11/12 09:32:40;;;;;;;15.10;13.63;;;17.70;75.30;;;;;;5053160;28;20408;-69
2021/11/12 09:35:07;;;;;;;14.80;13.40;;;17.40;75.50;;;;;;5052881;28;20507;-69
2021/11/12 09:37:33;;;;;;;16.20;14.70;;;17.10;76.00;;;;;;5052320;28;20427;-69
2021/11/12 09:39:59;;;;;;;16.90;15.30;;;16.90;77.50;;;;;;5052813;28;20411;-69
2021/11/12 09:42:29;;;;;;;15.60;13.73;;;16.60;77.40;;;;;;5052087;28;20896;-69
2021/11/12 09:44:55;;;;;;;17.10;15.50;;;16.20;78.40;;;;;;5053003;28;20487;-69
2021/11/12 09:47:27;;;;;;;15.60;14.10;;;16.10;79.80;;;;;;5053379;28;20895;-69
2021/11/12 09:49:55;;;;;;;17.13;15.33;;;16.00;80.30;;;;;;5053121;28;20442;-69
2021/11/12 09:52:24;;;;;;;14.47;13.10;;;15.90;79.90;;;;;;5053260;28;20843;-69
2021/11/12 09:54:51;;;;;;;16.80;15.13;;;15.90;80.70;;;;;;5052848;28;20899;-69
2021/11/12 09:57:18;;;;;;;16.07;14.57;;;15.90;81.00;;;;;;5052323;28;20412;-69
2021/11/12 09:59:49;;;;;;;18.83;13.67;;;16.00;81.90;;;;;;5053414;28;20400;-69
2021/11/12 10:02:16;;;;;;;15.20;13.70;;;16.10;82.30;;;;;;5052536;28;20743;-69
2021/11/12 10:04:43;;;;;;;16.43;14.93;;;16.20;80.90;;;;;;5052979;28;20399;-69
2021/11/12 10:07:12;;;;;;;15.33;13.87;;;16.30;81.00;;;;;;5051024;28;20410;-69
2021/11/12 10:09:38;;;;;;;16.17;14.70;;;16.50;80.40;;;;;;5051787;28;20441;-69
2021/11/12 10:12:07;;;;;;;16.40;14.80;;;16.60;80.10;;;;;;5052363;28;20787;-69
2021/11/12 10:14:52;;;;;;;16.83;15.27;;;16.70;79.40;;;;;;5052782;28;20404;-69
2021/11/12 10:17:21;;;;;;;17.93;14.17;;;16.80;78.90;;;;;;5052622;28;20404;-69
2021/11/12 10:19:51;;;;;;;16.73;15.13;;;16.90;79.20;;;;;;5052849;28;20932;-69
2021/11/12 10:22:22;;;;;;;14.67;13.20;;;17.00;77.40;;;;;;5052211;28;20840;-69
2021/11/12 10:24:48;;;;;;;18.70;16.90;;;17.00;79.00;;;;;;5051267;28;20470;-68
2021/11/12 10:27:17;;;;;;;14.57;13.07;;;17.00;77.90;;;;;;5052186;28;20424;-68
2021/11/12 10:29:46;;;;;;;14.57;13.17;;;17.10;76.90;;;;;;5052684;28;20416;-68
2021/11/12 10:32:18;;;;;;;15.53;14.13;;;17.10;78.30;;;;;;5050825;28;20411;-69
2021/11/12 10:34:46;;;;;;;14.90;13.50;;;17.20;76.90;;;;;;5052447;28;20860;-69
2021/11/12 10:37:23;;;;;;;14.63;13.20;;;17.30;76.70;;;;;;5051982;28;20435;-69
2021/11/12 10:39:57;;;;;;;16.03;14.53;;;17.40;76.70;;;;;;5052652;28;20415;-69
2021/11/12 10:42:25;;;;;;;14.73;13.27;;;17.60;74.70;;;;;;5051967;28;20476;-69
2021/11/12 10:44:57;;;;;;;14.70;13.27;;;17.70;73.40;;;;;;5052339;28;20935;-69
2021/11/12 10:47:25;;;;;;;15.20;13.77;;;17.90;72.90;;;;;;5052173;28;20408;-68
2021/11/12 10:49:58;;;;;;;15.67;14.30;;;18.00;73.80;;;;;;5052522;28;20454;-69
2021/11/12 10:52:26;;;;;;;12.80;11.50;;;18.20;70.70;;;;;;5052209;28;20941;-69
2021/11/12 10:57:34;;;;;;;14.40;12.90;;;18.30;68.80;;;;;;5051836;28;20408;-69
2021/11/12 11:00:05;;;;;;;14.10;12.80;;;18.30;70.10;;;;;;5052720;28;20403;-68
2021/11/12 11:02:53;;;;;;;13.63;12.27;;;18.40;67.80;;;;;;5052410;28;20391;-68
2021/11/12 11:05:25;;;;;;;12.40;11.20;;;18.30;68.20;;;;;;5051689;28;20475;-69
2021/11/12 11:08:00;;;;;;;13.60;12.40;;;18.40;68.20;;;;;;5052371;28;20844;-69
2021/11/12 11:10:33;;;;;;;13.27;12.07;;;18.60;68.00;;;;;;5052520;28;20408;-69
2021/11/12 11:13:09;;;;;;;14.27;12.83;;;18.70;67.10;;;;;;5052203;28;20504;-69
2021/11/12 11:15:45;;;;;;;14.03;12.57;;;18.80;66.50;;;;;;5050974;28;20802;-69
2021/11/12 11:18:24;;;;;;;14.30;12.90;;;18.90;66.70;;;;;;5051595;28;20403;-69
2021/11/12 11:23:52;;;;;;;13.30;12.10;;;19.30;66.30;;;;;;5051329;28;20559;-69
2021/11/12 11:26:43;;;;;;;13.30;12.10;;;19.40;63.70;;;;;;5050678;28;20444;-69
2021/11/12 11:29:12;;;;;;;12.80;11.60;;;19.40;63.60;;;;;;5046973;28;20435;-70
2021/11/12 11:31:39;;;;;;;11.90;10.73;;;19.50;63.90;;;;;;5052071;28;20501;-68
2021/11/12 11:34:05;;;;;;;13.13;11.93;;;19.30;62.70;;;;;;5055172;28;20486;-69
2021/11/12 11:36:38;;;;;;;13.70;12.30;;;19.20;62.40;;;;;;5055807;28;20407;-68
2021/11/12 11:39:07;;;;;;;13.00;11.80;;;19.10;62.90;;;;;;5054981;28;20772;-69
2021/11/12 11:41:34;;;;;;;13.57;12.37;;;18.50;63.70;;;;;;5055147;28;20412;-69
2021/11/12 11:44:00;;;;;;;12.60;11.40;;;18.50;63.80;;;;;;5055157;28;20423;-69
2021/11/12 11:46:30;;;;;;;13.20;11.90;;;18.50;63.90;;;;;;5054285;28;20649;-69
2021/11/12 11:48:58;;;;;;;13.60;12.30;;;18.60;64.60;;;;;;5055018;28;20166;-69
2021/11/12 11:51:33;;;;;;;13.07;11.87;;;18.60;62.60;;;;;;5055108;28;20448;-69
2021/11/12 11:54:11;;;;;;;12.73;11.53;;;18.50;63.40;;;;;;5054985;28;20426;-68
2021/11/12 11:56:42;;;;;;;13.40;12.20;;;18.40;64.10;;;;;;5055478;28;20927;-68
2021/11/12 11:59:19;;;;;;;14.63;13.20;;;18.40;64.20;;;;;;5054616;28;20428;-69
2021/11/12 12:01:50;;;;;;;12.63;11.47;;;18.20;62.80;;;;;;5055047;28;20931;-69
2021/11/12 12:04:16;;;;;;;12.13;10.93;;;18.20;64.30;;;;;;5053200;28;20429;-68
2021/11/12 12:07:04;;;;;;;14.30;13.00;;;18.20;65.20;;;;;;5053605;28;20456;-68
2021/11/12 12:09:51;;;;;;;11.70;10.70;;;18.20;64.00;;;;;;5053847;28;20177;-76
2021/11/12 12:12:34;;;;;;;13.90;11.07;;;18.30;63.60;;;;;;5054134;28;20463;-68
2021/11/12 12:15:03;;;;;;;13.70;12.40;;;18.20;64.70;;;;;;5054780;28;20474;-68
2021/11/12 12:17:29;;;;;;;12.70;11.57;;;18.10;64.50;;;;;;5053868;28;20416;-68
2021/11/12 12:20:06;;;;;;;13.57;12.47;;;18.00;64.30;;;;;;5052875;28;20422;-69
2021/11/12 13:20:21;;;;;;;11.80;10.60;;;16.40;64.50;;;;;;5049830;28;20396;-69
2021/11/12 13:23:04;;;;;;;11.03;9.93;;;16.40;64.70;;;;;;5052380;28;20416;-68
2021/11/12 13:25:38;;;;;;;10.93;9.50;;;16.30;65.90;;;;;;5051117;28;20495;-68
2021/11/12 13:28:16;;;;;;;12.40;11.10;;;16.30;66.30;;;;;;5052071;28;20969;-68
2021/11/12 13:30:49;;;;;;;11.87;9.67;;;16.20;65.30;;;;;;5052242;28;20441;-68
2021/11/12 13:33:23;;;;;;;10.67;9.57;;;16.10;65.90;;;;;;5051351;28;20406;-69
2021/11/12 13:35:49;;;;;;;12.40;11.30;;;16.00;66.90;;;;;;5052566;28;20464;-68
2021/11/12 13:38:14;;;;;;;11.80;10.63;;;15.90;67.10;;;;;;5050846;28;20428;-68
2021/11/12 13:40:40;;;;;;;10.20;9.27;;;15.80;66.90;;;;;;5052661;28;20216;-68
2021/11/12 13:43:06;;;;;;;11.23;10.03;;;15.70;66.20;;;;;;5052077;28;20188;-69
2021/11/12 13:45:32;;;;;;;11.70;10.30;;;15.60;67.60;;;;;;5051160;28;20821;-69
2021/11/12 13:48:12;;;;;;;13.83;10.47;;;15.50;68.30;;;;;;5051573;28;20184;-69
2021/11/12 13:50:40;;;;;;;10.50;9.60;;;15.40;68.00;;;;;;5052478;28;20858;-68
2021/11/12 13:53:06;;;;;;;11.63;10.43;;;15.40;67.60;;;;;;5051594;28;20751;-69
2021/11/12 13:55:37;;;;;;;10.37;9.37;;;15.40;67.40;;;;;;5052707;28;20411;-68
2021/11/12 13:58:05;;;;;;;12.70;11.50;;;15.30;66.60;;;;;;5053100;28;20479;-68
2021/11/12 14:00:36;;;;;;;11.97;10.77;;;15.30;66.80;;;;;;5053148;28;20414;-68
2021/11/12 14:03:17;;;;;;;10.97;9.97;;;15.20;67.90;;;;;;5052851;28;20431;-69
2021/11/12 14:06:01;;;;;;;13.23;10.03;;;15.20;67.20;;;;;;5053007;28;20493;-68
2021/11/12 14:08:37;;;;;;;11.70;10.50;;;15.10;68.90;;;;;;5052311;28;20859;-68
2021/11/12 14:11:15;;;;;;;13.60;10.50;;;14.90;68.90;;;;;;5051480;28;20769;-68
2021/11/12 14:13:42;;;;;;;10.60;9.60;;;14.90;69.60;;;;;;5052607;28;20778;-68
2021/11/12 14:16:17;;;;;;;11.50;10.30;;;14.90;68.60;;;;;;5051602;28;20870;-69
2021/11/12 14:27:17;;;;;;;10.50;9.50;;;14.90;70.50;;;;;;5052544;28;20861;-70
2021/11/12 14:49:20;;;;;;;10.43;9.40;;;14.80;71.70;;;;;;5052468;28;20496;-70
2021/11/12 14:52:16;;;;;;;12.80;10.03;;;14.80;71.50;;;;;;5052586;28;20453;-70
2021/11/12 14:54:51;;;;;;;10.43;9.07;;;14.70;70.70;;;;;;5051278;28;20407;-70
2021/11/12 14:57:27;;;;;;;11.23;9.60;;;14.50;69.90;;;;;;5051761;28;20408;-70
2021/11/12 15:00:04;;;;;;;10.93;9.93;;;14.40;71.30;;;;;;5052491;28;20452;-71
2021/11/12 15:02:32;;;;;;;10.03;8.97;;;14.40;71.00;;;;;;5051775;28;20683;-69
2021/11/12 15:04:57;;;;;;;11.20;10.10;;;14.40;71.30;;;;;;5052338;28;20442;-70
2021/11/12 15:07:36;;;;;;;10.67;9.67;;;14.40;70.90;;;;;;5053061;28;20419;-71
2021/11/12 15:10:09;;;;;;;11.17;10.10;;;14.30;72.30;;;;;;5056394;28;20195;-71
2021/11/12 15:12:36;;;;;;;14.20;10.93;;;14.20;73.00;;;;;;5055585;28;20400;-70
2021/11/12 15:15:03;;;;;;;11.43;10.23;;;14.20;73.90;;;;;;5056357;28;20489;-71
2021/11/12 15:17:30;;;;;;;10.57;9.57;;;14.10;72.30;;;;;;5055520;28;20405;-71
2021/11/12 15:19:57;;;;;;;10.80;9.73;;;14.10;72.40;;;;;;5056042;28;20814;-70
2021/11/12 15:25:14;;;;;;;9.70;8.80;;;14.10;73.20;;;;;;5056013;28;20408;-70
2021/11/12 15:27:54;;;;;;;9.73;8.73;;;14.00;72.10;;;;;;5056059;28;20412;-71
2021/11/12 15:30:40;;;;;;;9.80;8.90;;;13.90;72.60;;;;;;5055309;28;20423;-70
2021/11/12 15:33:08;;;;;;;9.63;8.73;;;13.90;73.20;;;;;;5056012;28;20401;-71
2021/11/12 15:35:35;;;;;;;11.27;10.03;;;13.90;73.70;;;;;;5055239;28;20462;-71
2021/11/12 15:40:49;;;;;;;9.97;8.23;;;13.80;76.00;;;;;;5055885;28;20400;-71
2021/11/12 15:43:26;;;;;;;9.07;8.10;;;13.70;76.30;;;;;;5054962;28;20415;-71
2021/11/12 15:48:24;;;;;;;9.47;8.47;;;13.60;77.00;;;;;;5054941;28;20438;-71
2021/11/12 16:01:28;;;;;;;10.33;8.80;;;13.30;76.90;;;;;;5054967;28;20435;-72
2021/11/12 16:09:47;;;;;;;11.23;9.20;;;13.00;78.90;;;;;;5032872;28;20454;-69
2021/11/12 16:27:28;;;;;;;11.10;9.10;;;12.50;80.00;;;;;;5054332;28;20439;-68
2021/11/12 16:29:55;;;;;;;10.60;9.57;;;12.50;79.90;;;;;;5054837;28;20427;-68
2021/11/12 16:34:59;;;;;;;11.67;10.57;;;12.40;81.30;;;;;;5054142;28;20897;-68
2021/11/12 16:37:28;;;;;;;9.93;8.90;;;12.30;82.10;;;;;;5053534;28;20405;-69
2021/11/12 17:01:02;;;;;;;10.97;9.87;;;11.80;86.10;;;;;;5053670;28;20487;-69
2021/11/12 17:11:27;;;;;;;10.13;8.70;;;11.80;84.80;;;;;;5053549;28;20416;-68
2021/11/12 17:19:31;;;;;;;10.77;9.23;;;11.90;84.70;;;;;;5042617;28;20889;-69
2021/11/12 21:46:57;;;;;;;12.63;9.47;;;11.50;88.30;;;;;;5052508;28;20447;-68
2021/11/12 21:49:23;;;;;;;10.50;9.50;;;11.40;88.40;;;;;;5053080;28;20448;-66
2021/11/12 21:51:49;;;;;;;11.77;9.77;;;11.40;89.20;;;;;;5052763;28;20181;-67
2021/11/12 21:54:15;;;;;;;11.37;10.20;;;11.40;89.10;;;;;;5052891;28;20224;-67
2021/11/12 21:56:41;;;;;;;10.77;9.73;;;11.40;89.40;;;;;;5052559;28;20427;-67
2021/11/12 21:59:07;;;;;;;11.20;10.10;;;11.40;89.70;;;;;;5053168;28;20630;-67
2021/11/12 22:01:35;;;;;;;13.27;10.87;;;11.50;89.70;;;;;;5053131;28;20556;-67
2021/11/12 22:04:02;;;;;;;10.97;9.77;;;11.40;90.00;;;;;;5053123;28;20412;-67
2021/11/12 22:06:28;;;;;;;10.80;9.70;;;11.50;90.10;;;;;;5053015;28;20455;-67
2021/11/12 22:08:54;;;;;;;11.00;9.80;;;11.50;90.20;;;;;;5052441;28;20413;-67
2021/11/12 22:11:20;;;;;;;11.17;10.07;;;11.60;90.40;;;;;;5051771;28;20416;-67
2021/11/12 22:13:46;;;;;;;11.10;10.00;;;11.60;90.50;;;;;;5050867;28;20205;-67
2021/11/12 22:16:15;;;;;;;12.20;10.97;;;11.50;90.70;;;;;;5052181;28;20272;-67
2021/11/12 22:18:42;;;;;;;11.90;10.17;;;11.40;91.50;;;;;;5052013;28;20420;-67
2021/11/12 22:21:08;;;;;;;10.77;9.67;;;11.50;91.40;;;;;;5052802;28;20414;-67
2021/11/12 22:23:34;;;;;;;10.87;9.73;;;11.60;91.30;;;;;;5052171;28;20420;-67
2021/11/12 22:26:00;;;;;;;10.70;9.60;;;11.60;91.20;;;;;;5052071;28;20252;-67
2021/11/12 22:28:27;;;;;;;10.97;9.50;;;11.70;91.50;;;;;;5052822;28;20464;-67
2021/11/12 22:30:53;;;;;;;13.63;10.57;;;11.70;91.30;;;;;;5052028;28;20420;-67
2021/11/12 22:33:19;;;;;;;11.43;10.33;;;11.70;91.10;;;;;;5052671;28;20492;-67
2021/11/12 22:35:45;;;;;;;10.87;9.70;;;11.70;91.00;;;;;;5052025;28;20412;-66
2021/11/12 22:38:12;;;;;;;11.40;10.20;;;11.70;90.80;;;;;;5052344;28;20539;-67
2021/11/12 22:40:43;;;;;;;11.00;9.90;;;11.80;90.70;;;;;;5052093;28;20769;-68
2021/11/12 22:43:09;;;;;;;11.93;10.70;;;11.70;90.20;;;;;;5051470;28;20400;-67
2021/11/12 22:45:35;;;;;;;12.10;10.53;;;11.50;90.00;;;;;;5050445;28;20610;-66
2021/11/12 22:48:01;;;;;;;11.07;9.90;;;11.50;90.30;;;;;;5051932;28;20493;-67
2021/11/12 22:50:27;;;;;;;13.43;10.37;;;11.60;90.30;;;;;;5052530;28;20483;-67
2021/11/12 22:52:53;;;;;;;11.80;10.33;;;11.70;90.20;;;;;;5050423;28;20432;-68
2021/11/12 22:55:20;;;;;;;10.70;9.60;;;11.60;90.20;;;;;;5052489;28;20174;-68
2021/11/12 22:57:46;;;;;;;11.47;10.27;;;11.70;90.40;;;;;;5051792;28;20187;-68
2021/11/12 23:00:47;;;;;;;11.70;10.33;;;11.70;90.30;;;;;;5052333;28;20455;-68
2021/11/12 23:03:13;;;;;;;11.23;9.87;;;11.80;90.20;;;;;;5047845;28;20431;-68
2021/11/12 23:05:39;;;;;;;12.50;11.20;;;11.80;90.20;;;;;;5051608;28;20472;-71
2021/11/12 23:08:05;;;;;;;11.23;10.10;;;11.90;90.30;;;;;;5050937;28;20477;-68
2021/11/12 23:10:32;;;;;;;15.93;12.10;;;11.80;90.10;;;;;;5052342;28;20169;-68
2021/11/12 23:12:57;;;;;;;11.03;9.93;;;11.90;90.20;;;;;;5051395;28;20896;-68
2021/11/12 23:15:23;;;;;;;12.80;11.27;;;11.80;90.10;;;;;;5052367;28;20426;-68
2021/11/12 23:17:49;;;;;;;11.20;10.10;;;11.90;90.30;;;;;;5051339;28;20173;-68
2021/11/12 23:20:15;;;;;;;11.17;10.10;;;11.90;90.10;;;;;;5051116;28;20902;-68